Relevés horaires Beauvechain (Belgique)


Relevés horaires à Beauvechain - Vendredi 03 Juill. 2020
Heure UTC1 Température [°C] Vent [km/h] Hum. [%] Pres.4 [hPa] Visi. [Km] Nébu. [octa] Préc.5 [mm] Cond.
2m. Res. Ros. Dir.2 Vit. Moy. Raf.3
23:00 14.6 14.5 10.2 SSO 7.4 -- 7.4 75 1018.3(0.1/3h) 20 -- -- --
22:00 15.3 15.3 10.0 SSO 5.6 -- 9.3 71 1018.5(0.3/3h) 20 -- -- --
21:00 15.8 15.8 9.7 O 5.6 -- 16.7 67 1018.3(0.8/3h) 20 -- -- --
20:00 16.5 16.5 9.6 O 5.6 -- 14.8 64 1018.1(0.5/3h) 20 -- -- --
19:00 18.7 18.7 10.2 O 9.3 -- 16.7 58 1018(0.2/3h) 20 -- -- --
18:00 20.0 20.0 10.3 OSO 11.1 -- 22.2 54 1017.3(-0.5/3h) 20 -- -- --
17:00 20.1 20.1 11.1 SO 11.1 -- 18.5 56 1017.3(-0.7/3h) 20 -- -- --
16:00 20.1 20.1 10.7 OSO 11.1 -- 18.5 55 1017.7(-0.4/3h) 20 -- -- --
15:00 20.7 20.7 11.9 OSO 11.1 -- 22.2 57 1017.8(-0.4/3h) 20 -- -- --
14:00 19.7 19.7 12.1 OSO 14.8 -- 22.2 62 1018.1(-0.3/3h) 20 5/8 -- --
13:00 19.5 19.5 12.0 OSO 13.0 -- 18.5 62 1018.2(-0.3/3h) 20 6/8 -- --
12:00 19.6 19.6 11.9 SO 11.1 -- 18.5 61 1018.3(0.0/3h) 20 5/8 -- --
11:00 19.3 19.3 13.8 OSO 9.3 -- 16.7 70 1018.5(0.3/3h) 20 5/8 -- --
10:00 17.7 17.7 13.1 SO 11.1 -- 18.5 74 1018.6(0.5/3h) 20 6/8 -- --
09:00 15.9 15.8 12.5 SO 9.3 -- 14.8 80 1018.5(0.6/3h) 15 7/8 -- --
08:00 14.7 14.3 12.7 SO 9.3 -- 13.0 88 1018.3(0.9/3h) 15 7/8 -- --
07:00 14.0 13.5 12.5 SO 9.3 -- 11.1 91 1018.2(0.8/3h) 10 8/8 -- --
06:00 13.6 13.3 12.2 SO 7.4 -- 13.0 91 1018(1.1/3h) 10 8/8 -- --
05:00 13.1 12.8 11.9 OSO 7.4 -- 13.0 92 1017.6(0.8/3h) 13 -- -- --
04:00 13.1 12.8 11.7 SO 7.4 -- 11.1 91 1017.3(0.6/3h) 15 -- -- --
03:00 12.8 12.4 11.1 SO 7.4 -- 11.1 89 1016.8(0.3/3h) 18 -- -- --
02:00 12.3 11.8 10.5 OSO 7.4 -- 11.1 89 1016.7(0.5/3h) 20 -- -- --
01:00 12.3 11.8 10.0 SO 7.4 -- 11.1 86 1016.7(0.6/3h) 20 -- -- --
00:00 12.6 12.2 9.7 SO 7.4 -- 16.7 82 1016.5(0.8/3h) 20 -- -- --

1 Coordinated Universal Time. Actuellement il est 16:00 locale et 14:00 UTC.

2 Le vent souffle depuis la direction indiquée vers la direction oposée.

3 Les rafales max. sont disponible 40 min après l'heure du relevé.

4 Pour les stations d'altitude (plus de 600m) le géopotentiel du niveau le plus proche de la pression obligatoire est indiqué.

5 Les stations disposant d'un diffuseur peuvent indiquer "trace". Cela signifie que des précipitations ont touchés le sol mais que la quantité est inférieure à 0.1 mm.

Récapitulatif de la journée
Température [°C] Vent [km/h] Ensoleillement4 [h] Precipitations totale5 [mm] Pression [Hpa]
Min1 Max.2 Moy.3 Max. Min Max.
12.1 21.8 0 22.2 0 h 0 min 0 1016.5 1018.6

1 Température minimale relevée entre 18:00 UTC la veille et 18:00 UTC le jour donné.

2 Température maximale relevée entre 06:00 UTC le jour donné et 06:00 UTC le lendemain.

3 Vent moyen de la journée basé sur les relevés horaires.

4 Ensoleillement en heures relevé entre 06:00 UTC la veille et 06:00 UTC le jour donné.

5 Précipitations totales tombées entre 06:00 UTC la jour donné et 06:00 UTC le lendemain.

Graphiques horaires